Ana Sayfa
METAR-TAF:

METAR-TAF

Havaalanları :

Erbil Havalimanı

Erbil, Irak

Enlem: 36-14-15N, Boylam: 43-57-47E, yükseklik: 415 m

Güncel hava durumu gözlemi

Rapor saat 18:00 UTC de 1 saat ve 14 dakika önce yapıldı.
Rüzgar kuzeydoğudan 16 kt ve 26 kt'a kadar ani rüzgarlar
Sıcaklık 25°C
Nem 34%
Basınç 1020 hPa
Görüş mesafesi: 8000 m

METAR: ORER 161800Z 04016G26KT 8000 FEW04 25/08 Q1020 NOSIG

Saat: 22:14 (19:14 UTC)

Tahmin

Rapor saat 16:00 UTC de 3 saat ve 14 dakika önce yapıldı.
Ayın 16'si saat 18 UTC'den ayın 17'si saat 18 UTC'ye kadar geçerli Tahmin
Rüzgar güney/güneydoğudan 8 kt
Görüş mesafesi: 7000 m
4000 ft yükseklikte parçalı bulutlu
10000 ft yükseklikte parçalı çok bulutlu
Olasılık 30% :
Geçici
ayın 16'si saat 18 UTC'den ayın 17'si saat 06 UTC'ye kadar
hafif sağanak yağmurlar

TAF: ORER 161600Z 1618/1718 16008KT 7000 SCT040 BKN100 PROB30 TEMPO 1618/1706 -SHRA

4.000'den fazla havaalanı için hava durumu gözlemleri ve tahminleri (METAR ve TAF raporları).

Kullanılabilir istasyonlar harita üzerinde sarı ve kırmızı noktalarla gösterilir.

İstasyonun adını görmek için fareyi noktanın üzerinde gezdirin.

Sonrasında hava gözlem ve tahminlerini görmek için tıklayın.

Haritayı değiştirmek için: yaklaştırmak için siyah artı işaretli yeşil düğmeye ve uzaklaştırmak için de eksi işaretli düğmeye hızla tıklayın; bitişik haritalar için yeşil okları kullanın.


METAR-TAF: